sensor_id;sensor_type;location;lat;lon;timestamp;temperature;humidity
7738;DHT22;29398;45.328;5.558;2023-05-19T00:00:46;11.90;99.90
7738;DHT22;29398;45.328;5.558;2023-05-19T00:01:49;11.90;99.90
7738;DHT22;29398;45.328;5.558;2023-05-19T00:02:52;11.90;99.90
7738;DHT22;29398;45.328;5.558;2023-05-19T00:03:55;11.90;99.90
7738;DHT22;29398;45.328;5.558;2023-05-19T00:04:59;11.90;99.90
7738;DHT22;29398;45.328;5.558;2023-05-19T00:06:01;11.90;99.90
7738;DHT22;29398;45.328;5.558;2023-05-19T00:07:05;11.90;99.90
7738;DHT22;29398;45.328;5.558;2023-05-19T00:08:09;11.90;99.90
7738;DHT22;29398;45.328;5.558;2023-05-19T00:09:12;11.90;99.90
7738;DHT22;29398;45.328;5.558;2023-05-19T00:10:14;11.90;99.90
7738;DHT22;29398;45.328;5.558;2023-05-19T00:11:17;11.90;99.90
7738;DHT22;29398;45.328;5.558;2023-05-19T00:12:18;11.90;99.90
7738;DHT22;29398;45.328;5.558;2023-05-19T00:13:21;11.90;99.90
7738;DHT22;29398;45.328;5.558;2023-05-19T00:14:23;11.90;99.90
7738;DHT22;29398;45.328;5.558;2023-05-19T00:15:25;11.90;99.90
7738;DHT22;29398;45.328;5.558;2023-05-19T00:16:28;11.90;99.90
7738;DHT22;29398;45.328;5.558;2023-05-19T00:17:32;11.90;99.90
7738;DHT22;29398;45.328;5.558;2023-05-19T00:18:34;11.90;99.90
7738;DHT22;29398;45.328;5.558;2023-05-19T00:19:36;11.90;99.90
7738;DHT22;29398;45.328;5.558;2023-05-19T00:20:37;11.90;99.90
7738;DHT22;29398;45.328;5.558;2023-05-19T00:21:39;11.90;99.90
7738;DHT22;29398;45.328;5.558;2023-05-19T00:22:40;11.90;99.90
7738;DHT22;29398;45.328;5.558;2023-05-19T00:23:43;11.90;99.90
7738;DHT22;29398;45.328;5.558;2023-05-19T00:24:44;11.90;99.90
7738;DHT22;29398;45.328;5.558;2023-05-19T00:25:46;11.90;99.90
7738;DHT22;29398;45.328;5.558;2023-05-19T00:26:48;11.90;99.90
7738;DHT22;29398;45.328;5.558;2023-05-19T00:27:50;11.90;99.90
7738;DHT22;29398;45.328;5.558;2023-05-19T00:28:51;11.90;99.90
7738;DHT22;29398;45.328;5.558;2023-05-19T00:29:54;11.90;99.90
7738;DHT22;29398;45.328;5.558;2023-05-19T00:30:55;11.90;99.90
7738;DHT22;29398;45.328;5.558;2023-05-19T00:31:57;11.90;99.90
7738;DHT22;29398;45.328;5.558;2023-05-19T00:33:00;11.80;99.90
7738;DHT22;29398;45.328;5.558;2023-05-19T00:34:02;11.80;99.90
7738;DHT22;29398;45.328;5.558;2023-05-19T00:35:04;11.80;99.90
7738;DHT22;29398;45.328;5.558;2023-05-19T00:36:07;11.80;99.90
7738;DHT22;29398;45.328;5.558;2023-05-19T00:37:08;11.80;99.90
7738;DHT22;29398;45.328;5.558;2023-05-19T00:38:10;11.90;99.90
7738;DHT22;29398;45.328;5.558;2023-05-19T00:39:12;11.80;99.90
7738;DHT22;29398;45.328;5.558;2023-05-19T00:40:14;11.90;99.90
7738;DHT22;29398;45.328;5.558;2023-05-19T00:41:15;11.80;99.90
7738;DHT22;29398;45.328;5.558;2023-05-19T00:42:17;11.80;99.90
7738;DHT22;29398;45.328;5.558;2023-05-19T00:43:20;11.80;99.90
7738;DHT22;29398;45.328;5.558;2023-05-19T00:44:22;11.80;99.90
7738;DHT22;29398;45.328;5.558;2023-05-19T00:45:23;11.80;99.90
7738;DHT22;29398;45.328;5.558;2023-05-19T00:46:26;11.80;99.90
7738;DHT22;29398;45.328;5.558;2023-05-19T00:47:27;11.80;99.90
7738;DHT22;29398;45.328;5.558;2023-05-19T00:48:30;11.80;99.90
7738;DHT22;29398;45.328;5.558;2023-05-19T00:49:31;11.80;99.90
7738;DHT22;29398;45.328;5.558;2023-05-19T00:50:34;11.80;99.90
7738;DHT22;29398;45.328;5.558;2023-05-19T00:51:35;11.70;99.90
7738;DHT22;29398;45.328;5.558;2023-05-19T00:52:37;11.80;99.90
7738;DHT22;29398;45.328;5.558;2023-05-19T00:53:39;11.80;99.90
7738;DHT22;29398;45.328;5.558;2023-05-19T00:54:42;11.80;99.90
7738;DHT22;29398;45.328;5.558;2023-05-19T00:55:45;11.70;99.90
7738;DHT22;29398;45.328;5.558;2023-05-19T00:56:48;11.70;99.90
7738;DHT22;29398;45.328;5.558;2023-05-19T00:57:49;11.70;99.90
7738;DHT22;29398;45.328;5.558;2023-05-19T00:58:51;11.60;99.90
7738;DHT22;29398;45.328;5.558;2023-05-19T00:59:54;11.60;99.90
7738;DHT22;29398;45.328;5.558;2023-05-19T01:00:57;11.60;99.90
7738;DHT22;29398;45.328;5.558;2023-05-19T01:02:03;11.50;99.90
7738;DHT22;29398;45.328;5.558;2023-05-19T01:03:04;11.50;99.90
7738;DHT22;29398;45.328;5.558;2023-05-19T01:04:12;11.50;99.90
7738;DHT22;29398;45.328;5.558;2023-05-19T01:05:17;11.50;99.90
7738;DHT22;29398;45.328;5.558;2023-05-19T01:06:19;11.50;99.90
7738;DHT22;29398;45.328;5.558;2023-05-19T01:07:22;11.50;99.90
7738;DHT22;29398;45.328;5.558;2023-05-19T01:08:25;11.40;99.90
7738;DHT22;29398;45.328;5.558;2023-05-19T01:09:27;11.40;99.90
7738;DHT22;29398;45.328;5.558;2023-05-19T01:10:28;11.40;99.90
7738;DHT22;29398;45.328;5.558;2023-05-19T01:11:30;11.40;99.90
7738;DHT22;29398;45.328;5.558;2023-05-19T01:12:31;11.40;99.90
7738;DHT22;29398;45.328;5.558;2023-05-19T01:13:35;11.40;99.90
7738;DHT22;29398;45.328;5.558;2023-05-19T01:14:37;11.40;99.90
7738;DHT22;29398;45.328;5.558;2023-05-19T01:15:50;11.40;99.90
7738;DHT22;29398;45.328;5.558;2023-05-19T01:17:02;11.40;99.90
7738;DHT22;29398;45.328;5.558;2023-05-19T01:18:11;11.40;99.90
7738;DHT22;29398;45.328;5.558;2023-05-19T01:19:29;11.40;99.90
7738;DHT22;29398;45.328;5.558;2023-05-19T01:20:35;11.40;99.90
7738;DHT22;29398;45.328;5.558;2023-05-19T01:22:13;11.40;99.90
7738;DHT22;29398;45.328;5.558;2023-05-19T01:23:33;11.50;99.90
7738;DHT22;29398;45.328;5.558;2023-05-19T01:26:40;11.40;99.90
7738;DHT22;29398;45.328;5.558;2023-05-19T01:28:13;11.60;99.90
7738;DHT22;29398;45.328;5.558;2023-05-19T01:29:28;11.30;99.90
7738;DHT22;29398;45.328;5.558;2023-05-19T01:30:37;11.40;99.90
7738;DHT22;29398;45.328;5.558;2023-05-19T01:31:41;11.30;99.90
7738;DHT22;29398;45.328;5.558;2023-05-19T01:32:44;11.30;99.90
7738;DHT22;29398;45.328;5.558;2023-05-19T01:33:48;11.40;99.90
7738;DHT22;29398;45.328;5.558;2023-05-19T01:34:53;11.40;99.90
7738;DHT22;29398;45.328;5.558;2023-05-19T01:35:55;11.40;99.90
7738;DHT22;29398;45.328;5.558;2023-05-19T01:37:00;11.40;99.90
7738;DHT22;29398;45.328;5.558;2023-05-19T01:38:02;11.40;99.90
7738;DHT22;29398;45.328;5.558;2023-05-19T01:39:04;11.40;99.90
7738;DHT22;29398;45.328;5.558;2023-05-19T01:40:07;11.40;99.90
7738;DHT22;29398;45.328;5.558;2023-05-19T01:41:12;11.30;99.90
7738;DHT22;29398;45.328;5.558;2023-05-19T01:42:14;11.40;99.90
7738;DHT22;29398;45.328;5.558;2023-05-19T01:43:19;11.40;99.90
7738;DHT22;29398;45.328;5.558;2023-05-19T01:44:22;11.40;99.90
7738;DHT22;29398;45.328;5.558;2023-05-19T01:45:24;11.40;99.90
7738;DHT22;29398;45.328;5.558;2023-05-19T01:46:28;11.30;99.90
7738;DHT22;29398;45.328;5.558;2023-05-19T01:47:29;11.40;99.90
7738;DHT22;29398;45.328;5.558;2023-05-19T01:48:31;11.30;99.90
7738;DHT22;29398;45.328;5.558;2023-05-19T01:49:33;11.30;99.90
7738;DHT22;29398;45.328;5.558;2023-05-19T01:50:35;11.30;99.90
7738;DHT22;29398;45.328;5.558;2023-05-19T01:51:36;11.30;99.90
7738;DHT22;29398;45.328;5.558;2023-05-19T01:52:39;11.30;99.90
7738;DHT22;29398;45.328;5.558;2023-05-19T01:53:41;11.30;99.90
7738;DHT22;29398;45.328;5.558;2023-05-19T01:54:43;11.30;99.90
7738;DHT22;29398;45.328;5.558;2023-05-19T01:55:50;11.30;99.90
7738;DHT22;29398;45.328;5.558;2023-05-19T01:56:59;11.20;99.90
7738;DHT22;29398;45.328;5.558;2023-05-19T01:58:09;11.30;99.90
7738;DHT22;29398;45.328;5.558;2023-05-19T01:59:23;11.30;99.90
7738;DHT22;29398;45.328;5.558;2023-05-19T02:00:37;11.30;99.90
7738;DHT22;29398;45.328;5.558;2023-05-19T02:01:50;11.20;99.90
7738;DHT22;29398;45.328;5.558;2023-05-19T02:02:58;11.30;99.90
7738;DHT22;29398;45.328;5.558;2023-05-19T02:04:12;11.20;99.90
7738;DHT22;29398;45.328;5.558;2023-05-19T02:06:30;11.20;99.90
7738;DHT22;29398;45.328;5.558;2023-05-19T02:07:39;11.20;99.90
7738;DHT22;29398;45.328;5.558;2023-05-19T02:08:46;11.20;99.90
7738;DHT22;29398;45.328;5.558;2023-05-19T02:09:54;11.20;99.90
7738;DHT22;29398;45.328;5.558;2023-05-19T02:11:06;11.20;99.90
7738;DHT22;29398;45.328;5.558;2023-05-19T02:12:18;11.30;99.90
7738;DHT22;29398;45.328;5.558;2023-05-19T02:13:23;11.20;99.90
7738;DHT22;29398;45.328;5.558;2023-05-19T02:14:32;11.20;99.90
7738;DHT22;29398;45.328;5.558;2023-05-19T02:15:39;11.20;99.90
7738;DHT22;29398;45.328;5.558;2023-05-19T02:16:45;11.20;99.90
7738;DHT22;29398;45.328;5.558;2023-05-19T02:17:49;11.20;99.90
7738;DHT22;29398;45.328;5.558;2023-05-19T02:18:54;11.20;99.90
7738;DHT22;29398;45.328;5.558;2023-05-19T02:19:57;11.30;99.90
7738;DHT22;29398;45.328;5.558;2023-05-19T02:20:58;11.30;99.90
7738;DHT22;29398;45.328;5.558;2023-05-19T02:22:00;11.00;99.90
7738;DHT22;29398;45.328;5.558;2023-05-19T02:23:01;11.20;99.90
7738;DHT22;29398;45.328;5.558;2023-05-19T02:24:04;11.10;99.90
7738;DHT22;29398;45.328;5.558;2023-05-19T02:25:07;11.10;99.90
7738;DHT22;29398;45.328;5.558;2023-05-19T02:26:10;11.10;99.90
7738;DHT22;29398;45.328;5.558;2023-05-19T02:27:11;11.10;99.90
7738;DHT22;29398;45.328;5.558;2023-05-19T02:28:13;11.10;99.90
7738;DHT22;29398;45.328;5.558;2023-05-19T02:29:16;11.10;99.90
7738;DHT22;29398;45.328;5.558;2023-05-19T02:30:18;11.00;99.90
7738;DHT22;29398;45.328;5.558;2023-05-19T02:31:19;11.00;99.90
7738;DHT22;29398;45.328;5.558;2023-05-19T02:32:22;11.00;99.90
7738;DHT22;29398;45.328;5.558;2023-05-19T02:33:24;11.10;99.90
7738;DHT22;29398;45.328;5.558;2023-05-19T02:34:27;11.00;99.90
7738;DHT22;29398;45.328;5.558;2023-05-19T02:35:28;11.00;99.90
7738;DHT22;29398;45.328;5.558;2023-05-19T02:36:33;11.00;99.90
7738;DHT22;29398;45.328;5.558;2023-05-19T02:37:36;11.00;99.90
7738;DHT22;29398;45.328;5.558;2023-05-19T02:38:38;11.00;99.90
7738;DHT22;29398;45.328;5.558;2023-05-19T02:39:39;11.00;99.90
7738;DHT22;29398;45.328;5.558;2023-05-19T02:40:41;11.10;99.90
7738;DHT22;29398;45.328;5.558;2023-05-19T02:41:42;11.00;99.90
7738;DHT22;29398;45.328;5.558;2023-05-19T02:42:44;11.00;99.90
7738;DHT22;29398;45.328;5.558;2023-05-19T02:43:45;11.00;99.90
7738;DHT22;29398;45.328;5.558;2023-05-19T02:44:48;11.00;99.90
7738;DHT22;29398;45.328;5.558;2023-05-19T02:45:49;11.10;99.90
7738;DHT22;29398;45.328;5.558;2023-05-19T02:46:51;11.00;99.90
7738;DHT22;29398;45.328;5.558;2023-05-19T02:47:53;11.00;99.90
7738;DHT22;29398;45.328;5.558;2023-05-19T02:48:56;11.10;99.90
7738;DHT22;29398;45.328;5.558;2023-05-19T02:49:57;11.00;99.90
7738;DHT22;29398;45.328;5.558;2023-05-19T02:50:59;11.00;99.90
7738;DHT22;29398;45.328;5.558;2023-05-19T02:52:00;11.00;99.90
7738;DHT22;29398;45.328;5.558;2023-05-19T02:53:03;11.00;99.90
7738;DHT22;29398;45.328;5.558;2023-05-19T02:54:05;11.00;99.90
7738;DHT22;29398;45.328;5.558;2023-05-19T02:55:07;10.90;99.90
7738;DHT22;29398;45.328;5.558;2023-05-19T02:56:08;10.90;99.90
7738;DHT22;29398;45.328;5.558;2023-05-19T02:57:10;10.90;99.90
7738;DHT22;29398;45.328;5.558;2023-05-19T02:58:12;10.90;99.90
7738;DHT22;29398;45.328;5.558;2023-05-19T02:59:14;10.90;99.90
7738;DHT22;29398;45.328;5.558;2023-05-19T03:00:15;10.80;99.90
7738;DHT22;29398;45.328;5.558;2023-05-19T03:01:18;10.90;99.90
7738;DHT22;29398;45.328;5.558;2023-05-19T03:02:21;10.90;99.90
7738;DHT22;29398;45.328;5.558;2023-05-19T03:03:24;10.80;99.90
7738;DHT22;29398;45.328;5.558;2023-05-19T03:04:25;10.90;99.90
7738;DHT22;29398;45.328;5.558;2023-05-19T03:05:27;10.80;99.90
7738;DHT22;29398;45.328;5.558;2023-05-19T03:06:29;10.80;99.90
7738;DHT22;29398;45.328;5.558;2023-05-19T03:07:32;10.90;99.90
7738;DHT22;29398;45.328;5.558;2023-05-19T03:08:33;10.90;99.90
7738;DHT22;29398;45.328;5.558;2023-05-19T03:09:36;10.80;99.90
7738;DHT22;29398;45.328;5.558;2023-05-19T03:10:37;10.90;99.90
7738;DHT22;29398;45.328;5.558;2023-05-19T03:11:39;10.80;99.90
7738;DHT22;29398;45.328;5.558;2023-05-19T03:12:40;10.80;99.90
7738;DHT22;29398;45.328;5.558;2023-05-19T03:13:42;10.80;99.90
7738;DHT22;29398;45.328;5.558;2023-05-19T03:14:43;10.80;99.90
7738;DHT22;29398;45.328;5.558;2023-05-19T03:15:46;10.80;99.90
7738;DHT22;29398;45.328;5.558;2023-05-19T03:16:47;10.70;99.90
7738;DHT22;29398;45.328;5.558;2023-05-19T03:17:49;10.80;99.90
7738;DHT22;29398;45.328;5.558;2023-05-19T03:18:51;10.70;99.90
7738;DHT22;29398;45.328;5.558;2023-05-19T03:19:55;10.70;99.90
7738;DHT22;29398;45.328;5.558;2023-05-19T03:20:56;10.70;99.90
7738;DHT22;29398;45.328;5.558;2023-05-19T03:21:58;10.70;99.90
7738;DHT22;29398;45.328;5.558;2023-05-19T03:23:00;10.70;99.90
7738;DHT22;29398;45.328;5.558;2023-05-19T03:24:02;10.70;99.90
7738;DHT22;29398;45.328;5.558;2023-05-19T03:25:04;10.80;99.90
7738;DHT22;29398;45.328;5.558;2023-05-19T03:26:06;10.70;99.90
7738;DHT22;29398;45.328;5.558;2023-05-19T03:27:07;10.80;99.90
7738;DHT22;29398;45.328;5.558;2023-05-19T03:28:10;10.80;99.90
7738;DHT22;29398;45.328;5.558;2023-05-19T03:29:12;10.70;99.90
7738;DHT22;29398;45.328;5.558;2023-05-19T03:30:14;10.70;99.90
7738;DHT22;29398;45.328;5.558;2023-05-19T03:31:31;10.80;99.90
7738;DHT22;29398;45.328;5.558;2023-05-19T03:32:33;10.70;99.90
7738;DHT22;29398;45.328;5.558;2023-05-19T03:33:37;10.80;99.90
7738;DHT22;29398;45.328;5.558;2023-05-19T03:34:40;10.80;99.90
7738;DHT22;29398;45.328;5.558;2023-05-19T03:35:42;10.80;99.90
7738;DHT22;29398;45.328;5.558;2023-05-19T03:36:44;10.60;99.90
7738;DHT22;29398;45.328;5.558;2023-05-19T03:37:51;10.70;99.90
7738;DHT22;29398;45.328;5.558;2023-05-19T03:38:52;10.70;99.90
7738;DHT22;29398;45.328;5.558;2023-05-19T03:39:54;10.70;99.90
7738;DHT22;29398;45.328;5.558;2023-05-19T03:40:55;10.70;99.90
7738;DHT22;29398;45.328;5.558;2023-05-19T03:41:57;10.70;99.90
7738;DHT22;29398;45.328;5.558;2023-05-19T03:42:58;10.70;99.90
7738;DHT22;29398;45.328;5.558;2023-05-19T03:44:01;10.70;99.90
7738;DHT22;29398;45.328;5.558;2023-05-19T03:45:02;10.70;99.90
7738;DHT22;29398;45.328;5.558;2023-05-19T03:46:05;10.70;99.90
7738;DHT22;29398;45.328;5.558;2023-05-19T03:47:27;10.70;99.90
7738;DHT22;29398;45.328;5.558;2023-05-19T03:48:39;10.70;99.90
7738;DHT22;29398;45.328;5.558;2023-05-19T03:50:02;10.70;99.90
7738;DHT22;29398;45.328;5.558;2023-05-19T03:51:24;10.70;99.90
7738;DHT22;29398;45.328;5.558;2023-05-19T03:52:29;10.60;99.90
7738;DHT22;29398;45.328;5.558;2023-05-19T03:53:44;10.60;99.90
7738;DHT22;29398;45.328;5.558;2023-05-19T03:54:45;10.60;99.90
7738;DHT22;29398;45.328;5.558;2023-05-19T03:55:47;10.60;99.90
7738;DHT22;29398;45.328;5.558;2023-05-19T03:56:49;10.60;99.90
7738;DHT22;29398;45.328;5.558;2023-05-19T03:57:51;10.60;99.90
7738;DHT22;29398;45.328;5.558;2023-05-19T03:58:52;10.60;99.90
7738;DHT22;29398;45.328;5.558;2023-05-19T03:59:55;10.60;99.90
7738;DHT22;29398;45.328;5.558;2023-05-19T04:00:56;10.60;99.90
7738;DHT22;29398;45.328;5.558;2023-05-19T04:01:58;10.60;99.90
7738;DHT22;29398;45.328;5.558;2023-05-19T04:03:00;10.60;99.90
7738;DHT22;29398;45.328;5.558;2023-05-19T04:04:02;10.50;99.90
7738;DHT22;29398;45.328;5.558;2023-05-19T04:05:05;10.50;99.90
7738;DHT22;29398;45.328;5.558;2023-05-19T04:06:08;10.50;99.90
7738;DHT22;29398;45.328;5.558;2023-05-19T04:07:09;10.50;99.90
7738;DHT22;29398;45.328;5.558;2023-05-19T04:08:11;10.50;99.90
7738;DHT22;29398;45.328;5.558;2023-05-19T04:09:13;10.50;99.90
7738;DHT22;29398;45.328;5.558;2023-05-19T04:10:15;10.50;99.90
7738;DHT22;29398;45.328;5.558;2023-05-19T04:11:16;10.50;99.90
7738;DHT22;29398;45.328;5.558;2023-05-19T04:12:19;10.50;99.90
7738;DHT22;29398;45.328;5.558;2023-05-19T04:13:20;10.50;99.90
7738;DHT22;29398;45.328;5.558;2023-05-19T04:14:22;10.50;99.90
7738;DHT22;29398;45.328;5.558;2023-05-19T04:15:24;10.50;99.90
7738;DHT22;29398;45.328;5.558;2023-05-19T04:16:26;10.50;99.90
7738;DHT22;29398;45.328;5.558;2023-05-19T04:17:27;10.50;99.90
7738;DHT22;29398;45.328;5.558;2023-05-19T04:18:29;10.50;99.90
7738;DHT22;29398;45.328;5.558;2023-05-19T04:19:31;10.50;99.90
7738;DHT22;29398;45.328;5.558;2023-05-19T04:20:34;10.50;99.90
7738;DHT22;29398;45.328;5.558;2023-05-19T04:21:35;10.50;99.90
7738;DHT22;29398;45.328;5.558;2023-05-19T04:22:37;10.50;99.90
7738;DHT22;29398;45.328;5.558;2023-05-19T04:23:38;10.50;99.90
7738;DHT22;29398;45.328;5.558;2023-05-19T04:24:41;10.50;99.90
7738;DHT22;29398;45.328;5.558;2023-05-19T04:25:43;10.50;99.90
7738;DHT22;29398;45.328;5.558;2023-05-19T04:26:48;10.50;99.90
7738;DHT22;29398;45.328;5.558;2023-05-19T04:27:51;10.50;99.90
7738;DHT22;29398;45.328;5.558;2023-05-19T04:28:57;10.50;99.90
7738;DHT22;29398;45.328;5.558;2023-05-19T04:29:58;10.50;99.90
7738;DHT22;29398;45.328;5.558;2023-05-19T04:31:00;10.50;99.90
7738;DHT22;29398;45.328;5.558;2023-05-19T04:32:03;10.50;99.90
7738;DHT22;29398;45.328;5.558;2023-05-19T04:33:07;10.60;99.90
7738;DHT22;29398;45.328;5.558;2023-05-19T04:34:09;10.60;99.90
7738;DHT22;29398;45.328;5.558;2023-05-19T04:35:11;10.60;99.90
7738;DHT22;29398;45.328;5.558;2023-05-19T04:36:15;10.60;99.90
7738;DHT22;29398;45.328;5.558;2023-05-19T04:37:21;10.60;99.90
7738;DHT22;29398;45.328;5.558;2023-05-19T04:38:24;10.60;99.90
7738;DHT22;29398;45.328;5.558;2023-05-19T04:39:30;10.50;99.90
7738;DHT22;29398;45.328;5.558;2023-05-19T04:40:31;10.50;99.90
7738;DHT22;29398;45.328;5.558;2023-05-19T04:41:33;10.50;99.90
7738;DHT22;29398;45.328;5.558;2023-05-19T04:42:37;10.50;99.90
7738;DHT22;29398;45.328;5.558;2023-05-19T04:43:41;10.50;99.90
7738;DHT22;29398;45.328;5.558;2023-05-19T04:44:45;10.50;99.90
7738;DHT22;29398;45.328;5.558;2023-05-19T04:45:49;10.50;99.90
7738;DHT22;29398;45.328;5.558;2023-05-19T04:46:52;10.50;99.90
7738;DHT22;29398;45.328;5.558;2023-05-19T04:47:56;10.50;99.90
7738;DHT22;29398;45.328;5.558;2023-05-19T04:48:58;10.50;99.90
7738;DHT22;29398;45.328;5.558;2023-05-19T04:50:00;10.50;99.90
7738;DHT22;29398;45.328;5.558;2023-05-19T04:51:01;10.50;99.90
7738;DHT22;29398;45.328;5.558;2023-05-19T04:52:07;10.50;99.90
7738;DHT22;29398;45.328;5.558;2023-05-19T04:53:10;10.50;99.90
7738;DHT22;29398;45.328;5.558;2023-05-19T04:54:13;10.50;99.90
7738;DHT22;29398;45.328;5.558;2023-05-19T04:55:14;10.50;99.90
7738;DHT22;29398;45.328;5.558;2023-05-19T04:56:17;10.50;99.90
7738;DHT22;29398;45.328;5.558;2023-05-19T04:57:19;10.50;99.90
7738;DHT22;29398;45.328;5.558;2023-05-19T04:58:21;10.50;99.90
7738;DHT22;29398;45.328;5.558;2023-05-19T04:59:25;10.60;99.90
7738;DHT22;29398;45.328;5.558;2023-05-19T05:00:27;10.50;99.90
7738;DHT22;29398;45.328;5.558;2023-05-19T05:01:34;10.60;99.90
7738;DHT22;29398;45.328;5.558;2023-05-19T05:02:41;10.50;99.90
7738;DHT22;29398;45.328;5.558;2023-05-19T05:03:43;10.50;99.90
7738;DHT22;29398;45.328;5.558;2023-05-19T05:04:45;10.50;99.90
7738;DHT22;29398;45.328;5.558;2023-05-19T05:05:48;10.50;99.90
7738;DHT22;29398;45.328;5.558;2023-05-19T05:06:49;10.50;99.90
7738;DHT22;29398;45.328;5.558;2023-05-19T05:07:54;10.50;99.90
7738;DHT22;29398;45.328;5.558;2023-05-19T05:08:57;10.50;99.90
7738;DHT22;29398;45.328;5.558;2023-05-19T05:09:59;10.50;99.90
7738;DHT22;29398;45.328;5.558;2023-05-19T05:11:01;10.50;99.90
7738;DHT22;29398;45.328;5.558;2023-05-19T05:12:04;10.60;99.90
7738;DHT22;29398;45.328;5.558;2023-05-19T05:13:08;10.60;99.90
7738;DHT22;29398;45.328;5.558;2023-05-19T05:14:11;10.60;99.90
7738;DHT22;29398;45.328;5.558;2023-05-19T05:15:14;10.60;99.90
7738;DHT22;29398;45.328;5.558;2023-05-19T05:16:16;10.60;99.90
7738;DHT22;29398;45.328;5.558;2023-05-19T05:17:18;10.70;99.90
7738;DHT22;29398;45.328;5.558;2023-05-19T05:18:21;10.70;99.90
7738;DHT22;29398;45.328;5.558;2023-05-19T05:19:23;10.70;99.90
7738;DHT22;29398;45.328;5.558;2023-05-19T05:20:26;10.60;99.90
7738;DHT22;29398;45.328;5.558;2023-05-19T05:21:27;10.70;99.90
7738;DHT22;29398;45.328;5.558;2023-05-19T05:22:33;10.70;99.90
7738;DHT22;29398;45.328;5.558;2023-05-19T05:23:37;10.70;99.90
7738;DHT22;29398;45.328;5.558;2023-05-19T05:24:41;10.70;99.90
7738;DHT22;29398;45.328;5.558;2023-05-19T05:25:43;10.70;99.90
7738;DHT22;29398;45.328;5.558;2023-05-19T05:26:46;10.80;99.90
7738;DHT22;29398;45.328;5.558;2023-05-19T05:27:48;10.80;99.90
7738;DHT22;29398;45.328;5.558;2023-05-19T05:28:50;10.80;99.90
7738;DHT22;29398;45.328;5.558;2023-05-19T05:29:51;10.90;99.90
7738;DHT22;29398;45.328;5.558;2023-05-19T05:30:55;10.90;99.90
7738;DHT22;29398;45.328;5.558;2023-05-19T05:31:59;10.90;99.90
7738;DHT22;29398;45.328;5.558;2023-05-19T05:33:02;11.00;99.90
7738;DHT22;29398;45.328;5.558;2023-05-19T05:34:07;11.00;99.90
7738;DHT22;29398;45.328;5.558;2023-05-19T05:35:11;11.10;99.90
7738;DHT22;29398;45.328;5.558;2023-05-19T05:36:13;11.10;99.90
7738;DHT22;29398;45.328;5.558;2023-05-19T05:37:15;11.20;99.90
7738;DHT22;29398;45.328;5.558;2023-05-19T05:38:16;11.20;99.90
7738;DHT22;29398;45.328;5.558;2023-05-19T05:39:20;11.20;99.90
7738;DHT22;29398;45.328;5.558;2023-05-19T05:40:21;11.30;99.90
7738;DHT22;29398;45.328;5.558;2023-05-19T05:41:23;11.30;99.90
7738;DHT22;29398;45.328;5.558;2023-05-19T05:42:26;11.40;99.90
7738;DHT22;29398;45.328;5.558;2023-05-19T05:43:28;11.50;99.90
7738;DHT22;29398;45.328;5.558;2023-05-19T05:44:33;11.50;99.90
7738;DHT22;29398;45.328;5.558;2023-05-19T05:45:37;11.60;99.90
7738;DHT22;29398;45.328;5.558;2023-05-19T05:46:39;11.70;99.90
7738;DHT22;29398;45.328;5.558;2023-05-19T05:47:42;11.80;99.90
7738;DHT22;29398;45.328;5.558;2023-05-19T05:48:43;11.90;99.90
7738;DHT22;29398;45.328;5.558;2023-05-19T05:49:46;12.10;99.90
7738;DHT22;29398;45.328;5.558;2023-05-19T05:50:49;12.20;99.90
7738;DHT22;29398;45.328;5.558;2023-05-19T05:51:57;12.30;99.90
7738;DHT22;29398;45.328;5.558;2023-05-19T05:53:00;12.40;99.90
7738;DHT22;29398;45.328;5.558;2023-05-19T05:54:05;12.50;99.90
7738;DHT22;29398;45.328;5.558;2023-05-19T05:55:14;12.60;99.90
7738;DHT22;29398;45.328;5.558;2023-05-19T05:56:17;12.80;99.90
7738;DHT22;29398;45.328;5.558;2023-05-19T05:57:23;12.90;99.90
7738;DHT22;29398;45.328;5.558;2023-05-19T05:58:27;13.00;99.90
7738;DHT22;29398;45.328;5.558;2023-05-19T05:59:28;13.00;99.90
7738;DHT22;29398;45.328;5.558;2023-05-19T06:00:30;13.10;99.90
7738;DHT22;29398;45.328;5.558;2023-05-19T06:01:33;13.10;99.90
7738;DHT22;29398;45.328;5.558;2023-05-19T06:02:37;13.20;99.90
7738;DHT22;29398;45.328;5.558;2023-05-19T06:03:40;13.20;99.90
7738;DHT22;29398;45.328;5.558;2023-05-19T06:04:45;13.20;99.90
7738;DHT22;29398;45.328;5.558;2023-05-19T06:05:46;13.20;99.90
7738;DHT22;29398;45.328;5.558;2023-05-19T06:06:48;13.30;99.90
7738;DHT22;29398;45.328;5.558;2023-05-19T06:07:54;13.30;99.90
7738;DHT22;29398;45.328;5.558;2023-05-19T06:09:00;13.30;99.90
7738;DHT22;29398;45.328;5.558;2023-05-19T06:10:03;13.40;99.90
7738;DHT22;29398;45.328;5.558;2023-05-19T06:11:07;13.40;99.90
7738;DHT22;29398;45.328;5.558;2023-05-19T06:12:09;13.40;99.90
7738;DHT22;29398;45.328;5.558;2023-05-19T06:13:17;13.50;99.90
7738;DHT22;29398;45.328;5.558;2023-05-19T06:14:22;13.50;99.90
7738;DHT22;29398;45.328;5.558;2023-05-19T06:15:46;13.50;99.90
7738;DHT22;29398;45.328;5.558;2023-05-19T06:16:58;13.50;99.90
7738;DHT22;29398;45.328;5.558;2023-05-19T06:18:02;13.50;99.90
7738;DHT22;29398;45.328;5.558;2023-05-19T06:19:03;13.50;99.90
7738;DHT22;29398;45.328;5.558;2023-05-19T06:20:07;13.50;99.90
7738;DHT22;29398;45.328;5.558;2023-05-19T06:21:09;13.50;99.90
7738;DHT22;29398;45.328;5.558;2023-05-19T06:22:13;13.60;99.90
7738;DHT22;29398;45.328;5.558;2023-05-19T06:23:15;13.60;99.90
7738;DHT22;29398;45.328;5.558;2023-05-19T06:24:16;13.60;99.90
7738;DHT22;29398;45.328;5.558;2023-05-19T06:25:18;13.70;99.90
7738;DHT22;29398;45.328;5.558;2023-05-19T06:26:22;13.70;99.90
7738;DHT22;29398;45.328;5.558;2023-05-19T06:27:24;13.70;99.90
7738;DHT22;29398;45.328;5.558;2023-05-19T06:28:25;13.70;99.90
7738;DHT22;29398;45.328;5.558;2023-05-19T06:29:27;13.70;99.90
7738;DHT22;29398;45.328;5.558;2023-05-19T06:30:31;13.70;99.90
7738;DHT22;29398;45.328;5.558;2023-05-19T06:31:41;13.80;99.90
7738;DHT22;29398;45.328;5.558;2023-05-19T06:32:45;13.90;99.90
7738;DHT22;29398;45.328;5.558;2023-05-19T06:33:47;14.00;99.90
7738;DHT22;29398;45.328;5.558;2023-05-19T06:34:49;14.00;99.90
7738;DHT22;29398;45.328;5.558;2023-05-19T06:35:54;14.10;99.90
7738;DHT22;29398;45.328;5.558;2023-05-19T06:36:56;14.10;99.90
7738;DHT22;29398;45.328;5.558;2023-05-19T06:37:58;14.10;99.90
7738;DHT22;29398;45.328;5.558;2023-05-19T06:39:00;14.10;99.90
7738;DHT22;29398;45.328;5.558;2023-05-19T06:40:02;14.10;99.90
7738;DHT22;29398;45.328;5.558;2023-05-19T06:41:06;14.10;99.90
7738;DHT22;29398;45.328;5.558;2023-05-19T06:42:08;14.10;99.90
7738;DHT22;29398;45.328;5.558;2023-05-19T06:43:33;14.20;99.90
7738;DHT22;29398;45.328;5.558;2023-05-19T06:44:38;14.20;99.90
7738;DHT22;29398;45.328;5.558;2023-05-19T06:45:43;14.20;99.90
7738;DHT22;29398;45.328;5.558;2023-05-19T06:46:46;14.20;99.90
7738;DHT22;29398;45.328;5.558;2023-05-19T06:47:47;14.20;99.90
7738;DHT22;29398;45.328;5.558;2023-05-19T06:48:50;14.30;99.90
7738;DHT22;29398;45.328;5.558;2023-05-19T06:49:54;14.40;99.90
7738;DHT22;29398;45.328;5.558;2023-05-19T06:51:00;14.50;99.90
7738;DHT22;29398;45.328;5.558;2023-05-19T06:52:04;14.70;99.90